Latest Weather Observations for Legendre Island

IDW60801

Issued at 2:33 pm WST Sunday 24 July 2016 (issued every 30 minutes, with the page automatically refreshed every 10 minutes)

About weather observations | Map of weather stations | Latest weather observations for WA | Other Formats
Station Details ID: 004095 Name: LEGENDRE ISLAND Lat: -20.36 Lon: 116.84 Height: 29.0 m
Data from the previous 72 hours. | See also: Recent months at Legendre Island
Date/Time
WST
Temp
°C
App
Temp
°C
Dew
Point
°C
Rel
Hum
%
Delta-T
°C
Wind Press
QNH
hPa
Press
MSL
hPa
Rain since
9am
mm
Dir  Spd
km/h
Gust
km/h
Spd
kts
Gust
kts
24/02:30pm 21.7 15.5 12.8 57 5.1 ESE 37 43 20 23 1015.6 1015.5 -
24/02:00pm 21.6 15.2 13.2 59 4.8 ESE 39 46 21 25 1015.7 1015.6 -
24/01:30pm 21.2 14.9 13.4 61 4.5 ESE 39 46 21 25 1015.9 1015.8 -
24/01:00pm 21.2 15.1 14.1 64 4.1 ESE 39 44 21 24 1016.1 1016.0 -
24/12:30pm 20.9 13.8 14.1 65 4.0 ESE 44 50 24 27 1016.4 1016.3 -
24/12:00pm 20.8 14.1 14.5 67 3.7 E 43 48 23 26 1016.8 1016.7 -
24/11:30am 20.9 14.0 14.1 65 4.0 ESE 43 50 23 27 1017.1 1017.0 -
24/11:00am 20.8 13.5 14.5 67 3.7 E 46 54 25 29 1017.7 1017.6 -
24/10:30am 20.5 14.0 15.7 74 2.9 E 44 54 24 29 1017.8 1017.7 -
24/10:00am 20.1 13.6 15.7 76 2.6 ESE 44 50 24 27 1018.0 1017.9 -
24/09:30am 20.1 13.5 15.3 74 2.8 ESE 44 52 24 28 1017.9 1017.8 -
24/09:00am 21.1 15.0 14.0 64 4.1 E 39 46 21 25 1018.1 1018.0 -
24/08:30am 21.2 15.7 14.6 66 3.9 ESE 37 44 20 24 1017.8 1017.7 -
24/08:00am 21.3 14.6 14.7 66 3.9 E 43 52 23 28 1016.9 1016.8 -
24/07:30am 21.4 15.5 15.7 70 3.4 E 41 48 22 26 1016.6 1016.5 -
24/07:00am 21.4 15.0 15.3 68 3.6 ESE 43 50 23 27 1016.2 1016.1 -
24/06:30am 21.5 15.8 15.3 68 3.7 ESE 39 46 21 25 1016.0 1015.9 -
24/06:00am 21.8 15.9 14.7 64 4.2 ESE 39 44 21 24 1015.8 1015.7 -
24/05:30am 22.1 16.8 14.2 61 4.6 ESE 35 43 19 23 1015.5 1015.4 -
24/05:00am 22.0 17.2 13.9 60 4.7 ESE 32 37 17 20 1015.5 1015.4 -
24/04:30am 22.1 18.0 13.7 59 4.9 ESE 28 35 15 19 1015.5 1015.4 -
24/04:00am 22.3 18.8 14.4 61 4.6 ESE 26 32 14 17 1015.3 1015.3 -
24/03:30am 22.3 19.7 13.9 59 4.9 ESE 20 26 11 14 1015.5 1015.4 -
24/03:00am 22.7 19.6 14.5 60 4.8 ESE 24 28 13 15 1015.3 1015.3 -
24/02:30am 23.0 19.9 14.6 59 5.0 ESE 24 28 13 15 1015.5 1015.4 -
24/02:00am 23.3 20.5 15.4 61 4.7 ESE 24 28 13 15 1015.7 1015.6 -
24/01:30am 23.5 21.5 16.5 65 4.3 ESE 22 28 12 15 1015.7 1015.6 -
24/01:00am 22.9 22.9 18.0 74 3.1 ESE 15 22 8 12 1015.7 1015.6 -
24/12:30am 21.9 22.3 18.9 83 1.9 SE 15 19 8 10 1015.7 1015.6 -
24/12:00am 21.4 22.4 19.5 89 1.2 SSE 13 17 7 9 1015.6 1015.5 -
 
Date/Time
WST
Temp
°C
App
Temp
°C
Dew
Point
°C
Rel
Hum
%
Delta-T
°C
Wind Press
QNH
hPa
Press
MSL
hPa
Rain since
9am
mm
Dir  Spd
km/h
Gust
km/h
Spd
kts
Gust
kts
23/11:30pm 21.6 23.9 19.9 90 1.1 ESE 7 11 4 6 1015.7 1015.6 -
23/11:00pm 21.2 22.9 19.3 89 1.2 SSE 9 11 5 6 1015.7 1015.6 -
23/10:30pm 21.1 22.7 19.2 89 1.2 SSW 9 11 5 6 1015.8 1015.7 -
23/10:00pm 21.3 22.9 19.2 88 1.3 SSW 9 11 5 6 1015.7 1015.6 -
23/09:30pm 21.4 21.9 19.3 88 1.3 SSW 15 15 8 8 1015.3 1015.3 -
23/09:00pm 21.4 21.9 19.3 88 1.3 SW 15 15 8 8 1015.6 1015.5 -
23/08:30pm 21.3 21.3 19.0 87 1.5 SW 17 19 9 10 1015.6 1015.5 -
23/08:00pm 22.6 21.7 18.2 76 2.8 SW 20 22 11 12 1015.5 1015.4 -
23/07:30pm 21.7 21.8 16.4 72 3.2 SW 11 13 6 7 1015.3 1015.3 -
23/07:00pm 22.4 23.7 17.1 72 3.3 ENE 6 7 3 4 1014.9 1014.9 -
23/06:30pm 22.6 23.6 15.4 64 4.3 ENE 4 4 2 2 1014.7 1014.7 -
23/06:00pm 22.6 24.5 15.7 65 4.1 CALM 0 0 0 0 1014.5 1014.5 -
23/05:30pm 23.7 25.5 15.5 60 4.9 CALM 0 0 0 0 1014.2 1014.2 -
23/05:00pm 23.9 25.0 15.7 60 5.0 ENE 4 4 2 2 1014.1 1014.1 -
23/04:30pm 24.2 24.6 15.4 58 5.3 ENE 7 9 4 5 1013.9 1013.8 -
23/04:00pm 24.5 24.8 14.9 55 5.7 E 7 7 4 4 1014.0 1014.0 -
23/03:30pm 24.7 24.8 15.6 57 5.5 ENE 9 11 5 6 1014.2 1014.2 -
23/03:00pm 24.3 23.8 15.0 56 5.6 ENE 11 13 6 7 1014.4 1014.4 -
23/02:30pm 24.1 23.7 15.1 57 5.4 E 11 15 6 8 1014.7 1014.7 -
23/02:00pm 24.1 23.6 15.9 60 5.0 E 13 15 7 8 1015.3 1015.3 -
23/01:30pm 24.3 22.7 15.0 56 5.6 E 17 19 9 10 1015.7 1015.6 -
23/01:00pm 23.9 22.0 15.7 60 5.0 E 20 24 11 13 1015.8 1015.7 -
23/12:30pm 23.8 20.9 15.0 57 5.3 E 24 28 13 15 1016.2 1016.1 -
23/12:00pm 24.4 20.7 15.1 56 5.6 E 28 32 15 17 1016.5 1016.4 -
23/11:30am 24.4 20.1 14.5 54 5.9 E 30 35 16 19 1016.7 1016.6 -
23/11:00am 24.1 19.4 14.2 54 5.8 E 32 33 17 18 1017.0 1016.9 -
23/10:30am 24.1 20.6 15.6 59 5.1 E 28 32 15 17 1017.4 1017.3 -
23/10:00am 24.1 20.4 15.1 57 5.4 E 28 32 15 17 1017.6 1017.5 -
23/09:30am 24.3 20.3 14.1 53 6.0 E 28 33 15 18 1017.8 1017.7 -
23/09:00am 23.6 20.0 14.3 56 5.5 ESE 26 32 14 17 1017.6 1017.5 -
23/08:30am 23.3 18.9 12.9 52 6.0 E 28 33 15 18 1017.3 1017.2 -
23/08:00am 22.6 19.0 13.1 55 5.5 ESE 24 28 13 15 1017.2 1017.1 -
23/07:30am 21.6 18.8 13.2 59 4.8 SE 20 28 11 15 1017.1 1017.0 -
23/07:00am 20.5 18.1 13.9 66 3.8 SE 19 22 10 12 1016.9 1016.8 -
23/06:30am 20.6 18.3 14.0 66 3.8 SE 19 22 10 12 1016.2 1016.1 -
23/06:00am 20.7 18.8 14.1 66 3.8 SE 17 22 9 12 1015.8 1015.7 -
23/05:30am 21.2 18.7 13.4 61 4.5 ESE 19 22 10 12 1015.5 1015.4 -
23/05:00am 21.2 18.4 12.6 58 4.9 ESE 19 22 10 12 1015.3 1015.3 -
23/04:30am 21.4 18.6 13.1 59 4.7 ESE 20 26 11 14 1015.2 1015.2 -
23/04:00am 21.0 19.5 15.3 70 3.4 SE 17 20 9 11 1015.5 1015.4 -
23/03:30am 21.1 20.6 16.9 77 2.6 SE 15 17 8 9 1015.3 1015.3 -
23/03:00am 20.9 19.4 15.4 71 3.3 SE 17 20 9 11 1015.7 1015.6 -
23/02:30am 21.3 19.1 13.2 60 4.6 SE 17 20 9 11 1016.0 1015.9 -
23/02:00am 21.9 18.7 11.9 53 5.6 SE 20 26 11 14 1016.2 1016.1 -
23/01:30am 22.1 18.6 12.1 53 5.6 SE 22 26 12 14 1016.3 1016.2 -
23/01:00am 21.9 19.5 13.8 60 4.7 SE 19 24 10 13 1016.3 1016.2 -
23/12:30am 21.6 20.3 15.7 69 3.5 SE 17 20 9 11 1016.4 1016.3 -
23/12:00am 21.0 19.1 15.3 70 3.4 SE 19 20 10 11 1016.2 1016.1 -
 
Date/Time
WST
Temp
°C
App
Temp
°C
Dew
Point
°C
Rel
Hum
%
Delta-T
°C
Wind Press
QNH
hPa
Press
MSL
hPa
Rain since
9am
mm
Dir  Spd
km/h
Gust
km/h
Spd
kts
Gust
kts
22/11:30pm 21.1 19.7 15.6 71 3.3 SSE 17 20 9 11 1016.1 1016.0 -
22/11:00pm 20.9 20.8 16.9 78 2.4 S 13 15 7 8 1016.1 1016.0 -
22/10:30pm 20.7 20.8 17.5 82 2.0 SSW 13 13 7 7 1016.2 1016.1 -
22/10:00pm 20.8 21.0 18.6 87 1.4 SSW 15 15 8 8 1016.1 1016.0 -
22/09:30pm 20.7 20.5 18.6 88 1.3 SSW 17 17 9 9 1016.1 1016.0 -
22/09:00pm 21.0 21.4 19.1 89 1.2 SSW 15 17 8 9 1016.1 1016.0 -
22/08:30pm 21.0 21.1 19.1 89 1.2 SSW 17 17 9 9 1016.1 1016.0 -
22/08:00pm 20.9 21.1 18.5 86 1.5 SW 15 15 8 8 1015.7 1015.6 -
22/07:30pm 21.2 21.6 18.2 83 1.9 SSW 13 15 7 8 1015.5 1015.4 -
22/07:00pm 21.5 21.6 17.5 78 2.5 SSW 13 15 7 8 1015.0 1015.0 -
22/06:30pm 21.6 21.4 16.6 73 3.0 SW 13 13 7 7 1015.0 1015.0 -
22/06:00pm 21.7 22.0 15.1 66 3.9 SW 7 7 4 4 1014.7 1014.7 -
22/05:30pm 22.1 22.2 15.5 66 3.9 SW 9 9 5 5 1014.5 1014.5 -
22/05:00pm 22.5 22.2 14.4 60 4.8 SSW 9 11 5 6 1014.3 1014.3 -
22/04:30pm 23.3 22.5 11.7 48 6.5 SSW 7 9 4 5 1014.5 1014.5 -
22/04:00pm 23.7 22.2 9.3 40 7.8 S 7 9 4 5 1014.5 1014.5 -
22/03:30pm 24.2 22.7 9.0 38 8.2 S 7 9 4 5 1014.4 1014.4 -
22/03:00pm 23.9 22.1 9.5 40 7.8 S 9 11 5 6 1014.4 1014.4 -
22/02:30pm 24.0 21.9 9.9 41 7.7 S 11 13 6 7 1014.6 1014.6 -
22/02:00pm 24.3 22.1 9.5 39 8.1 SSE 11 15 6 8 1014.7 1014.7 -
22/01:30pm 23.8 21.5 10.5 43 7.4 SSE 13 17 7 9 1015.0 1015.0 -
22/01:00pm 24.0 21.2 11.3 45 7.1 E 17 19 9 10 1015.5 1015.4 -
22/12:30pm 24.0 21.1 11.0 44 7.3 ESE 17 20 9 11 1015.8 1015.7 -
22/12:00pm 24.5 21.5 11.8 45 7.2 ESE 19 24 10 13 1016.3 1016.2 -
22/11:30am 23.5 20.6 12.2 49 6.4 ESE 19 22 10 12 1016.4 1016.3 -
22/11:00am 23.2 20.4 12.5 51 6.1 ESE 19 22 10 12 1016.7 1016.6 -
22/10:30am 22.9 20.3 13.1 54 5.6 ESE 19 20 10 11 1017.0 1016.9 -
22/10:00am 22.9 20.0 12.2 51 6.1 ESE 19 22 10 12 1017.2 1017.1 -
22/09:30am 22.6 20.3 13.1 55 5.5 ESE 17 20 9 11 1017.2 1017.1 -
22/09:00am 22.0 19.4 13.1 57 5.1 ESE 19 22 10 12 1016.7 1016.6 -
22/08:30am 22.1 20.0 13.7 59 4.9 ESE 17 22 9 12 1016.5 1016.4 -
22/08:00am 21.7 19.9 13.3 59 4.8 ESE 15 24 8 13 1016.2 1016.1 -
22/07:30am 20.5 19.6 13.7 65 3.9 ESE 11 13 6 7 1016.1 1016.0 -
22/07:00am 19.4 18.1 13.8 70 3.2 SE 13 15 7 8 1015.9 1015.8 -
22/06:30am 19.2 17.3 12.9 67 3.6 SE 15 17 8 9 1015.5 1015.4 -
22/06:00am 19.8 18.6 12.8 64 3.9 ESE 11 13 6 7 1015.3 1015.3 -
22/05:30am 19.6 17.8 9.5 52 5.4 SE 9 13 5 7 1015.0 1015.0 -
22/05:00am 19.8 17.1 9.1 50 5.6 SE 13 17 7 9 1015.0 1015.0 -
22/04:30am 20.0 16.7 8.0 46 6.2 SSE 15 19 8 10 1015.1 1015.1 -
22/04:00am 19.7 15.7 8.4 48 5.9 SSE 19 20 10 11 1015.1 1015.1 -
22/03:30am 19.1 15.7 7.8 48 5.8 S 15 17 8 9 1015.0 1015.0 -
22/03:00am 19.1 15.9 8.4 50 5.5 SSE 15 19 8 10 1015.1 1015.1 -
22/02:30am 19.1 15.9 9.9 55 4.9 S 17 20 9 11 1015.1 1015.1 -
22/02:00am 19.1 16.3 9.9 55 4.9 S 15 17 8 9 1015.5 1015.4 -
22/01:30am 19.8 15.9 9.4 51 5.5 S 20 24 11 13 1015.9 1015.8 -
22/01:00am 19.6 16.0 9.8 53 5.2 S 19 22 10 12 1016.1 1016.0 -
22/12:30am 20.2 16.4 9.7 51 5.6 S 20 24 11 13 1016.1 1016.0 -
22/12:00am 20.0 16.8 10.1 53 5.3 S 17 19 9 10 1016.3 1016.2 -
 
Date/Time
WST
Temp
°C
App
Temp
°C
Dew
Point
°C
Rel
Hum
%
Delta-T
°C
Wind Press
QNH
hPa
Press
MSL
hPa
Rain since
9am
mm
Dir  Spd
km/h
Gust
km/h
Spd
kts
Gust
kts
21/11:30pm 20.8 16.6 9.7 49 6.0 SSW 22 26 12 14 1016.3 1016.2 -
21/11:00pm 20.7 17.5 11.9 57 4.9 SSW 20 24 11 13 1016.4 1016.3 -
21/10:30pm 21.1 17.2 12.0 56 5.1 SSW 24 30 13 16 1016.4 1016.3 -
21/10:00pm 21.0 16.4 11.1 53 5.4 SSW 26 30 14 16 1016.6 1016.5 -
21/09:30pm 21.1 16.8 12.0 56 5.1 SSW 26 32 14 17 1016.4 1016.3 -
21/09:00pm 21.3 16.5 11.6 54 5.4 SW 28 33 15 18 1016.2 1016.1 -
21/08:30pm 21.4 17.1 12.0 55 5.3 SW 26 32 14 17 1016.1 1016.0 -
21/08:00pm 21.4 17.9 13.3 60 4.6 SW 24 28 13 15 1015.9 1015.8 -
21/07:30pm 21.6 19.0 13.8 61 4.5 SW 20 24 11 13 1015.7 1015.6 -
21/07:00pm 21.5 19.0 14.2 63 4.3 WSW 20 24 11 13 1015.3 1015.3 -
21/06:30pm 21.6 18.5 13.5 60 4.7 WSW 22 26 12 14 1015.0 1015.0 -
21/06:00pm 21.6 18.1 12.2 55 5.3 WSW 22 24 12 13 1014.6 1014.6 -
21/05:30pm 22.3 18.9 11.4 50 6.1 WSW 20 26 11 14 1014.5 1014.5 -
21/05:00pm 23.1 20.5 12.1 50 6.2 W 17 20 9 11 1014.4 1014.4 -
21/04:30pm 23.8 22.4 12.1 48 6.7 W 11 15 6 8 1014.0 1014.0 -
21/04:00pm 23.8 21.9 11.8 47 6.8 W 13 17 7 9 1013.9 1013.8 -
21/03:30pm 24.2 21.4 11.2 44 7.3 W 17 19 9 10 1014.0 1014.0 -
21/03:00pm 24.6 22.1 9.7 39 8.2 WSW 13 17 7 9 1014.3 1014.3 -

Other Formats:

Comma delimited format used in spreadsheet applications
http://www.bom.gov.au/fwo/IDW60801/IDW60801.94307.axf

JavaScript Object Notation format (JSON) in row-major order
http://www.bom.gov.au/fwo/IDW60801/IDW60801.94307.json